Time;durP1;ratioP1;P1;durP2;ratioP2;P2;SDS_P1;SDS_P2;PMS_P1;PMS_P2;Temp;Humidity;BMP_temperature;BMP_pressure;BME280_temperature;BME280_humidity;BME280_pressure;Samples;Min_cycle;Max_cycle;Signal;HPM_P1;HPM_P2
2021/03/10 00:01:11;;;;;;;4.97;2.92;;;;;;;-2.28;53.66;100156.55;1648301;87;21973;-60
2021/03/10 00:03:39;;;;;;;4.33;2.72;;;;;;;-2.28;53.65;100159.10;1677172;84;21138;-60
2021/03/10 00:06:07;;;;;;;3.27;2.62;;;;;;;-2.26;53.68;100149.39;1677288;85;21609;-60
2021/03/10 00:08:36;;;;;;;5.55;3.02;;;;;;;-2.25;53.97;100152.80;1677147;84;21654;-60
2021/03/10 00:11:03;;;;;;;7.55;4.30;;;;;;;-2.26;53.83;100157.45;1677076;85;21541;-60
2021/03/10 00:13:32;;;;;;;5.75;3.50;;;;;;;-2.28;54.32;100157.83;1677143;85;21103;-61
2021/03/10 00:15:59;;;;;;;19.85;5.50;;;;;;;-2.31;54.30;100156.08;1711438;82;21121;-60
2021/03/10 00:18:27;;;;;;;6.75;3.83;;;;;;;-2.35;54.87;100154.70;1677245;84;21619;-61
2021/03/10 00:20:54;;;;;;;7.75;4.90;;;;;;;-2.47;55.01;100154.89;1677272;85;21701;-60
2021/03/10 00:23:22;;;;;;;5.65;4.30;;;;;;;-2.58;54.84;100155.47;1677151;85;23602;-60
2021/03/10 00:25:49;;;;;;;6.08;4.05;;;;;;;-2.66;55.04;100158.27;1677170;85;21155;-60
2021/03/10 00:28:16;;;;;;;7.50;4.80;;;;;;;-2.71;55.02;100145.84;1677170;85;21619;-60
2021/03/10 00:30:44;;;;;;;10.93;7.78;;;;;;;-2.75;55.16;100141.50;1677181;84;21092;-60
2021/03/10 00:33:12;;;;;;;15.05;9.88;;;;;;;-2.82;55.10;100142.66;1677195;85;21579;-60
2021/03/10 00:35:39;;;;;;;12.73;5.12;;;;;;;-2.85;54.87;100144.27;1677188;85;23658;-60
2021/03/10 00:38:07;;;;;;;11.00;6.05;;;;;;;-2.90;54.38;100138.20;1677140;85;21130;-60
2021/03/10 00:40:34;;;;;;;7.30;3.60;;;;;;;-2.97;54.43;100137.19;1677172;85;21533;-60
2021/03/10 00:43:04;;;;;;;7.50;4.35;;;;;;;-3.04;54.58;100137.03;1677167;85;21104;-60
2021/03/10 00:45:32;;;;;;;6.30;4.25;;;;;;;-3.08;54.82;100132.28;1677179;84;21092;-61
2021/03/10 00:47:59;;;;;;;5.83;3.92;;;;;;;-3.08;54.97;100139.05;1677194;84;21383;-60
2021/03/10 00:50:28;;;;;;;7.22;5.50;;;;;;;-3.09;55.15;100133.10;1677138;84;21146;-60
2021/03/10 00:52:57;;;;;;;10.53;6.22;;;;;;;-3.15;55.09;100129.98;1677192;85;21081;-60
2021/03/10 00:55:24;;;;;;;11.93;8.10;;;;;;;-3.21;55.08;100128.59;1677185;84;21083;-60
2021/03/10 00:57:51;;;;;;;13.20;8.95;;;;;;;-3.25;55.20;100129.75;1677133;84;21484;-61
2021/03/10 01:00:20;;;;;;;6.12;4.00;;;;;;;-3.28;55.35;100129.26;1677174;84;21253;-61
2021/03/10 01:02:48;;;;;;;6.05;3.70;;;;;;;-3.33;55.62;100127.42;1677139;84;21624;-60
2021/03/10 01:05:15;;;;;;;12.25;5.97;;;;;;;-3.38;55.95;100132.79;1677238;84;21076;-60
2021/03/10 01:07:44;;;;;;;7.80;5.40;;;;;;;-3.43;56.29;100125.48;1677205;85;21083;-60
2021/03/10 01:10:12;;;;;;;5.55;3.98;;;;;;;-3.47;56.38;100122.86;1679587;84;21105;-60
2021/03/10 01:12:40;;;;;;;8.15;5.30;;;;;;;-3.52;56.34;100117.20;1682523;84;21823;-60
2021/03/10 01:15:10;;;;;;;9.48;4.25;;;;;;;-3.54;56.79;100121.38;1685470;85;21195;-60
2021/03/10 01:17:38;;;;;;;7.33;4.58;;;;;;;-3.56;56.93;100116.26;1682651;84;21624;-60
2021/03/10 01:20:12;;;;;;;8.15;4.75;;;;;;;-3.59;57.51;100114.91;1654820;85;21606;-60
2021/03/10 01:22:39;;;;;;;9.45;4.58;;;;;;;-3.61;57.54;100116.58;1681453;85;21560;-60
2021/03/10 01:25:09;;;;;;;9.15;4.95;;;;;;;-3.67;57.41;100115.14;1714399;83;21447;-60
2021/03/10 01:27:36;;;;;;;22.15;6.10;;;;;;;-3.76;57.46;100115.30;1714391;83;21198;-60
2021/03/10 01:30:09;;;;;;;8.93;6.20;;;;;;;-3.83;57.79;100113.89;1682539;84;21500;-60
2021/03/10 01:32:37;;;;;;;9.63;6.45;;;;;;;-3.84;58.20;100111.30;1682574;84;21236;-60
2021/03/10 01:35:06;;;;;;;10.88;5.58;;;;;;;-3.88;58.47;100105.27;1654742;85;21064;-60
2021/03/10 01:37:33;;;;;;;11.95;6.12;;;;;;;-3.89;58.76;100117.53;1681325;84;21436;-61
2021/03/10 01:40:12;;;;;;;10.50;6.28;;;;;;;-3.90;59.09;100104.38;1714488;83;21492;-60
2021/03/10 01:42:41;;;;;;;7.87;5.15;;;;;;;-3.91;59.60;100110.68;1714566;83;21602;-60
2021/03/10 01:45:10;;;;;;;7.97;4.90;;;;;;;-3.97;59.64;100106.70;1714478;83;21178;-60
2021/03/10 01:47:41;;;;;;;15.75;10.90;;;;;;;-4.07;59.21;100106.88;1682655;85;21561;-60
2021/03/10 01:50:10;;;;;;;27.20;18.30;;;;;;;-4.18;59.00;100104.44;1682521;85;21211;-60
2021/03/10 01:52:38;;;;;;;19.52;11.43;;;;;;;-4.27;58.52;100104.20;1653421;86;21120;-61
2021/03/10 01:55:07;;;;;;;19.67;8.70;;;;;;;-4.34;57.90;100108.64;1654956;86;21096;-60
2021/03/10 01:57:36;;;;;;;17.37;11.43;;;;;;;-4.44;57.49;100105.41;1653454;85;21101;-60
2021/03/10 02:00:06;;;;;;;11.45;6.20;;;;;;;-4.52;57.43;100102.64;1653526;86;21105;-60
2021/03/10 02:02:35;;;;;;;10.75;6.00;;;;;;;-4.60;57.27;100107.92;1654500;86;21269;-60
2021/03/10 02:05:05;;;;;;;8.45;5.17;;;;;;;-4.71;57.24;100108.86;1653413;86;21522;-60
2021/03/10 02:08:06;;;;;;;12.88;5.37;;;;;;;-4.81;57.34;100106.88;1654817;86;21476;-60
2021/03/10 02:11:07;;;;;;;24.23;5.62;;;;;;;-4.88;57.48;100116.38;1654454;85;21089;-60
2021/03/10 02:13:49;;;;;;;18.80;4.60;;;;;;;-4.96;57.36;100116.13;1677200;85;21113;-61
2021/03/10 02:16:44;;;;;;;21.15;4.70;;;;;;;-5.04;57.27;100111.25;1677154;85;21372;-61
2021/03/10 02:19:41;;;;;;;32.65;7.03;;;;;;;-5.10;57.12;100108.91;1677199;85;21529;-61
2021/03/10 02:22:49;;;;;;;13.35;5.25;;;;;;;-5.15;57.60;100112.98;1667992;84;21163;-61
2021/03/10 02:26:00;;;;;;;10.68;2.98;;;;;;;-5.23;57.63;100113.62;1707773;84;21170;-61
2021/03/10 02:28:27;;;;;;;3.47;2.55;;;;;;;-5.31;57.93;100107.43;1724497;83;21616;-60
2021/03/10 02:30:55;;;;;;;6.97;3.00;;;;;;;-5.38;58.14;100112.24;1707775;83;22463;-61
2021/03/10 02:33:26;;;;;;;12.95;5.87;;;;;;;-5.42;58.84;100116.38;1724568;83;21088;-61
2021/03/10 02:36:11;;;;;;;15.88;4.35;;;;;;;-5.43;59.54;100113.79;1707940;82;21196;-61
2021/03/10 02:38:42;;;;;;;8.28;4.53;;;;;;;-5.48;59.48;100114.90;1724621;83;21149;-61
2021/03/10 02:41:10;;;;;;;28.60;5.17;;;;;;;-5.55;59.44;100114.23;1707658;84;21085;-61
2021/03/10 02:43:38;;;;;;;8.58;3.67;;;;;;;-5.61;59.43;100112.78;1724655;83;21274;-61
2021/03/10 02:46:06;;;;;;;7.15;2.58;;;;;;;-5.66;59.66;100115.16;1707877;84;21165;-61
2021/03/10 02:48:37;;;;;;;5.40;3.40;;;;;;;-5.66;59.79;100112.63;1724564;83;21203;-61
2021/03/10 02:51:05;;;;;;;8.35;3.95;;;;;;;-5.66;60.21;100113.89;1707922;84;21153;-60
2021/03/10 02:53:34;;;;;;;50.95;7.50;;;;;;;-5.66;60.46;100114.30;1724614;83;21049;-60
2021/03/10 02:56:01;;;;;;;25.48;4.62;;;;;;;-5.66;60.72;100116.83;1707922;83;23537;-61
2021/03/10 02:58:28;;;;;;;11.68;5.47;;;;;;;-5.69;60.90;100115.45;1699959;83;21125;-61
2021/03/10 03:00:56;;;;;;;10.08;5.78;;;;;;;-5.71;61.35;100117.94;1705865;84;21181;-61
2021/03/10 03:03:24;;;;;;;12.82;4.72;;;;;;;-5.75;61.79;100120.30;1741899;82;21097;-61
2021/03/10 03:05:51;;;;;;;12.50;5.33;;;;;;;-5.79;61.90;100119.73;1741870;81;21481;-61
2021/03/10 03:08:19;;;;;;;13.20;5.15;;;;;;;-5.87;61.63;100120.77;1741838;82;21422;-61
2021/03/10 03:10:47;;;;;;;9.20;4.67;;;;;;;-5.93;61.34;100123.11;1741781;82;21120;-60
2021/03/10 03:13:15;;;;;;;6.55;3.65;;;;;;;-5.99;60.81;100132.61;1741906;81;21592;-60
2021/03/10 03:15:56;;;;;;;44.77;5.55;;;;;;;-6.02;60.74;100127.88;1741826;82;21155;-60
2021/03/10 03:18:26;;;;;;;31.07;6.10;;;;;;;-6.04;60.48;100123.16;1741974;82;21643;-60
2021/03/10 03:20:54;;;;;;;9.50;3.52;;;;;;;-6.07;60.37;100131.50;1741856;82;21450;-60
2021/03/10 03:23:24;;;;;;;7.67;3.10;;;;;;;-6.08;59.92;100129.78;1741512;81;21060;-60
2021/03/10 03:25:51;;;;;;;36.85;5.78;;;;;;;-6.12;59.84;100129.61;1741782;82;21061;-60
2021/03/10 03:28:21;;;;;;;4.92;2.90;;;;;;;-6.13;59.89;100127.88;1741807;82;21156;-60
2021/03/10 03:30:49;;;;;;;12.63;3.15;;;;;;;-6.15;60.35;100130.36;1741935;82;21129;-60
2021/03/10 03:33:20;;;;;;;8.13;2.92;;;;;;;-6.17;60.35;100127.31;1741813;82;21384;-60
2021/03/10 03:35:54;;;;;;;7.45;4.40;;;;;;;-6.20;60.76;100124.70;1741784;82;21128;-60
2021/03/10 03:38:23;;;;;;;9.13;5.30;;;;;;;-6.23;61.39;100138.11;1741791;82;21065;-60
2021/03/10 03:40:51;;;;;;;9.88;4.85;;;;;;;-6.27;61.90;100138.39;1741851;82;21074;-60
2021/03/10 03:43:19;;;;;;;33.78;6.25;;;;;;;-6.30;62.11;100133.61;1741929;82;21105;-60
2021/03/10 03:45:46;;;;;;;9.80;5.05;;;;;;;-6.34;62.29;100131.38;1741750;82;21478;-60
2021/03/10 03:48:14;;;;;;;7.03;4.50;;;;;;;-6.35;62.46;100137.64;1741762;82;21061;-60
2021/03/10 03:50:42;;;;;;;6.83;4.55;;;;;;;-6.42;62.53;100140.38;1741787;82;21080;-59
2021/03/10 03:53:12;;;;;;;9.80;5.15;;;;;;;-6.46;62.22;100142.72;1741741;82;22336;-60
2021/03/10 03:55:41;;;;;;;14.78;5.45;;;;;;;-6.51;62.12;100146.75;1741827;82;21076;-60
2021/03/10 03:58:08;;;;;;;8.20;4.87;;;;;;;-6.54;61.73;100147.48;1741845;81;22278;-60
2021/03/10 04:00:36;;;;;;;12.50;5.62;;;;;;;-6.57;61.92;100146.11;1741706;82;21963;-59
2021/03/10 04:03:05;;;;;;;13.48;5.50;;;;;;;-6.59;61.62;100148.15;1741800;82;21069;-60
2021/03/10 04:05:32;;;;;;;139.35;14.00;;;;;;;-6.61;61.78;100147.69;1741794;82;21064;-60
2021/03/10 04:08:02;;;;;;;167.75;16.40;;;;;;;-6.62;62.08;100145.95;1740869;82;21518;-59
2021/03/10 04:10:32;;;;;;;37.08;8.55;;;;;;;-6.64;62.12;100146.30;1741797;82;22217;-60
2021/03/10 04:12:59;;;;;;;98.42;11.65;;;;;;;-6.65;62.17;100146.23;1741857;82;21092;-59
2021/03/10 04:15:30;;;;;;;10.50;3.72;;;;;;;-6.68;62.35;100145.72;1741793;82;21104;-59
2021/03/10 04:17:58;;;;;;;23.50;6.33;;;;;;;-6.72;62.30;100142.61;1741855;82;21569;-60
2021/03/10 04:20:26;;;;;;;31.42;7.37;;;;;;;-6.79;63.04;100148.22;1741787;82;21166;-59
2021/03/10 04:22:53;;;;;;;14.28;5.35;;;;;;;-6.81;63.91;100147.73;1741784;82;21154;-60
2021/03/10 04:25:22;;;;;;;44.25;6.80;;;;;;;-6.82;64.27;100142.21;1741544;82;21104;-60
2021/03/10 04:27:50;;;;;;;53.75;5.80;;;;;;;-6.85;64.26;100136.63;1741770;82;21072;-60
2021/03/10 04:30:20;;;;;;;15.90;5.85;;;;;;;-6.87;64.22;100144.56;1741780;82;21599;-60
2021/03/10 04:32:47;;;;;;;84.50;11.80;;;;;;;-6.88;63.98;100140.70;1741777;82;21144;-60
2021/03/10 04:35:16;;;;;;;33.80;9.63;;;;;;;-6.86;63.86;100146.69;1741854;82;21372;-60
2021/03/10 04:37:44;;;;;;;24.80;11.12;;;;;;;-6.86;64.03;100145.02;1741805;82;21641;-60
2021/03/10 04:40:13;;;;;;;27.60;10.55;;;;;;;-6.84;64.68;100150.14;1741757;82;21065;-60
2021/03/10 04:42:41;;;;;;;23.00;12.20;;;;;;;-6.80;65.00;100146.93;1741855;81;21497;-60
2021/03/10 04:45:12;;;;;;;27.42;14.00;;;;;;;-6.74;65.25;100147.14;1741718;81;21132;-60
2021/03/10 04:47:41;;;;;;;30.20;15.35;;;;;;;-6.69;65.53;100154.52;1741884;82;21387;-60
2021/03/10 04:50:10;;;;;;;27.93;13.55;;;;;;;-6.59;65.63;100150.68;1741799;81;21140;-60
2021/03/10 04:52:38;;;;;;;50.92;12.58;;;;;;;-6.53;65.64;100149.62;1741834;82;21560;-60
2021/03/10 04:55:07;;;;;;;34.08;14.53;;;;;;;-6.46;65.67;100151.58;1676449;85;21138;-60
2021/03/10 04:57:35;;;;;;;68.90;17.35;;;;;;;-6.40;65.60;100148.89;1705739;82;21180;-60
2021/03/10 05:00:08;;;;;;;81.45;15.75;;;;;;;-6.35;65.58;100148.63;1722900;82;22193;-60
2021/03/10 05:02:37;;;;;;;116.75;19.02;;;;;;;-6.33;65.67;100152.08;1676449;84;21594;-60
2021/03/10 05:05:06;;;;;;;81.02;17.70;;;;;;;-6.22;65.79;100155.42;1705782;84;21175;-60
2021/03/10 05:07:33;;;;;;;51.73;12.33;;;;;;;-6.17;65.80;100149.69;1741845;82;21513;-60
2021/03/10 05:10:04;;;;;;;78.90;13.88;;;;;;;-6.07;65.64;100150.90;1676452;85;21071;-60
2021/03/10 05:12:31;;;;;;;48.20;12.45;;;;;;;-5.97;65.73;100150.00;1705921;84;22148;-60
2021/03/10 05:14:59;;;;;;;50.00;11.38;;;;;;;-5.88;64.86;100148.61;1706329;84;22058;-60
2021/03/10 05:17:27;;;;;;;36.50;11.50;;;;;;;-5.82;63.85;100150.92;1706322;84;21614;-62
2021/03/10 05:19:55;;;;;;;54.10;11.90;;;;;;;-5.77;63.47;100144.72;1706315;84;21181;-60
2021/03/10 05:22:24;;;;;;;81.47;15.35;;;;;;;-5.70;63.00;100150.47;1706317;84;21549;-60
2021/03/10 05:24:51;;;;;;;107.52;16.37;;;;;;;-5.63;62.71;100158.34;1706215;84;22262;-60
2021/03/10 05:27:19;;;;;;;56.30;13.95;;;;;;;-5.55;62.37;100148.45;1706259;84;21585;-59
2021/03/10 05:29:46;;;;;;;98.12;19.12;;;;;;;-5.45;62.12;100154.70;1706295;82;21542;-60
2021/03/10 05:32:14;;;;;;;27.62;12.33;;;;;;;-5.36;61.74;100152.45;1706329;84;21094;-60
2021/03/10 05:34:42;;;;;;;84.85;21.85;;;;;;;-5.26;61.87;100153.22;1706393;84;21484;-60
2021/03/10 05:37:09;;;;;;;25.70;11.80;;;;;;;-5.15;62.19;100158.22;1706267;84;21199;-60
2021/03/10 05:39:36;;;;;;;49.42;16.40;;;;;;;-5.03;62.06;100158.63;1706229;84;21173;-60
2021/03/10 05:42:05;;;;;;;78.17;16.55;;;;;;;-4.96;61.91;100155.45;1706314;84;21070;-60
2021/03/10 05:44:32;;;;;;;35.90;12.23;;;;;;;-4.85;61.73;100158.34;1706268;84;21078;-60
2021/03/10 05:47:00;;;;;;;48.63;12.73;;;;;;;-4.74;61.46;100161.19;1706316;82;21511;-61
2021/03/10 05:49:27;;;;;;;30.35;11.35;;;;;;;-4.67;61.10;100158.90;1706273;84;21518;-60
2021/03/10 05:51:54;;;;;;;38.10;11.05;;;;;;;-4.62;60.89;100157.37;1706194;84;21605;-59
2021/03/10 05:54:22;;;;;;;88.37;14.00;;;;;;;-4.53;60.53;100164.38;1706254;84;21075;-60
2021/03/10 05:56:51;;;;;;;199.95;22.35;;;;;;;-4.48;60.42;100162.84;1706289;84;21095;-60
2021/03/10 05:59:18;;;;;;;56.65;10.75;;;;;;;-4.38;60.17;100166.50;1706298;83;21175;-62
2021/03/10 06:01:46;;;;;;;41.50;11.33;;;;;;;-4.28;60.02;100169.37;1705498;84;21370;-61
2021/03/10 06:04:14;;;;;;;33.95;9.25;;;;;;;-4.17;59.56;100178.55;1706044;84;21082;-62
2021/03/10 06:06:43;;;;;;;32.05;9.33;;;;;;;-4.09;59.37;100173.30;1705708;84;21168;-62
2021/03/10 06:09:20;;;;;;;70.80;11.35;;;;;;;-3.98;58.81;100181.20;1741797;82;21065;-62
2021/03/10 06:12:06;;;;;;;53.05;12.47;;;;;;;-3.93;58.57;100174.58;1676587;85;21607;-62
2021/03/10 06:14:33;;;;;;;34.95;13.38;;;;;;;-3.83;58.42;100182.92;1705872;84;21225;-60
2021/03/10 06:17:11;;;;;;;54.65;15.10;;;;;;;-3.71;58.01;100181.11;1706299;83;21601;-60
2021/03/10 06:19:47;;;;;;;207.27;33.15;;;;;;;-3.61;57.60;100179.27;1706368;82;21094;-61
2021/03/10 06:22:18;;;;;;;64.27;13.38;;;;;;;-3.52;57.49;100178.23;1706503;84;21189;-61
2021/03/10 06:24:50;;;;;;;35.52;9.50;;;;;;;-3.39;56.93;100179.39;1707053;82;21122;-61
2021/03/10 06:27:23;;;;;;;62.13;10.00;;;;;;;-3.27;56.61;100183.13;1701134;84;22252;-61
2021/03/10 06:30:00;;;;;;;66.50;14.58;;;;;;;-3.15;56.42;100183.83;1678896;85;21098;-61
2021/03/10 06:32:28;;;;;;;41.83;7.97;;;;;;;-3.06;56.29;100185.75;1700808;84;21149;-60
2021/03/10 06:34:56;;;;;;;50.88;9.83;;;;;;;-2.96;55.91;100186.00;1721201;82;21645;-64
2021/03/10 06:37:32;;;;;;;179.80;18.80;;;;;;;-2.86;55.59;100186.69;1736190;82;21162;-61
2021/03/10 06:40:12;;;;;;;51.45;10.18;;;;;;;-2.73;55.03;100186.95;1731539;82;21432;-60
2021/03/10 06:42:45;;;;;;;29.72;7.00;;;;;;;-2.65;54.69;100194.38;1748278;81;21552;-60
2021/03/10 06:45:12;;;;;;;92.15;14.13;;;;;;;-2.59;53.56;100193.22;1721037;82;21497;-61
2021/03/10 06:47:41;;;;;;;50.45;11.25;;;;;;;-2.57;52.83;100189.88;1738344;82;22153;-60
2021/03/10 06:50:11;;;;;;;38.78;10.03;;;;;;;-2.51;53.19;100189.17;1739224;82;21124;-60
2021/03/10 06:52:40;;;;;;;42.78;9.55;;;;;;;-2.39;52.72;100188.56;1739214;82;22135;-60
2021/03/10 06:55:11;;;;;;;64.32;9.73;;;;;;;-2.25;52.69;100189.75;1700561;82;21088;-61
2021/03/10 06:57:43;;;;;;;34.20;10.43;;;;;;;-2.07;51.52;100186.72;1739105;82;21174;-61
2021/03/10 07:00:22;;;;;;;32.08;7.40;;;;;;;-1.99;50.99;100184.75;1739323;82;21081;-60
2021/03/10 07:02:50;;;;;;;63.70;19.35;;;;;;;-1.91;51.01;100181.95;1739204;82;21140;-60
2021/03/10 07:05:18;;;;;;;75.47;13.40;;;;;;;-1.76;50.55;100183.52;1739118;81;21469;-60
2021/03/10 07:07:47;;;;;;;22.93;7.40;;;;;;;-1.60;50.42;100174.91;1724195;82;21545;-61
2021/03/10 07:10:18;;;;;;;64.35;11.08;;;;;;;-1.44;49.66;100175.21;1738988;82;21164;-60
2021/03/10 07:12:45;;;;;;;46.10;6.97;;;;;;;-1.27;49.40;100175.91;1739063;82;21147;-60
2021/03/10 07:15:14;;;;;;;19.65;4.87;;;;;;;-1.22;48.36;100173.03;1739069;82;21703;-60
2021/03/10 07:17:43;;;;;;;27.10;7.67;;;;;;;-1.22;48.75;100173.03;1738823;82;21223;-61
2021/03/10 07:20:13;;;;;;;100.87;10.93;;;;;;;-1.20;48.81;100178.58;1739018;82;21064;-59
2021/03/10 07:23:02;;;;;;;27.90;7.03;;;;;;;-1.08;49.02;100175.39;1739185;82;21510;-59
2021/03/10 07:25:32;;;;;;;46.18;9.30;;;;;;;-0.98;49.32;100177.25;1740159;81;21052;-60
2021/03/10 07:28:06;;;;;;;25.75;6.72;;;;;;;-0.84;49.52;100174.94;1741816;82;21103;-60
2021/03/10 07:30:39;;;;;;;36.40;6.78;;;;;;;-0.74;48.93;100176.36;1741773;82;21367;-60
2021/03/10 07:33:12;;;;;;;18.57;5.53;;;;;;;-0.66;48.44;100181.59;1741856;82;21132;-60
2021/03/10 07:35:55;;;;;;;31.80;6.90;;;;;;;-0.55;48.67;100180.46;1741732;81;21052;-58
2021/03/10 07:38:28;;;;;;;39.45;7.05;;;;;;;-0.47;48.30;100177.61;1741758;82;21261;-60
2021/03/10 07:40:59;;;;;;;32.90;5.90;;;;;;;-0.42;48.40;100179.81;1739108;82;21184;-60
2021/03/10 07:43:42;;;;;;;17.98;5.20;;;;;;;-0.42;48.66;100179.81;1741799;81;21451;-60
2021/03/10 07:46:29;;;;;;;27.20;6.40;;;;;;;-0.40;48.53;100178.14;1741876;82;21505;-60
2021/03/10 07:48:59;;;;;;;27.02;6.72;;;;;;;-0.48;48.45;100175.47;1741535;82;21107;-60
2021/03/10 07:51:36;;;;;;;23.90;5.72;;;;;;;-0.55;48.31;100181.73;1740418;82;21222;-60
2021/03/10 07:54:36;;;;;;;46.90;7.05;;;;;;;-0.58;48.39;100177.86;1741494;82;21492;-59
2021/03/10 07:57:13;;;;;;;59.95;8.33;;;;;;;-0.53;48.49;100177.52;1770226;79;21512;-61
2021/03/10 07:59:56;;;;;;;47.83;8.30;;;;;;;-0.47;47.82;100173.36;1800276;79;21114;-60
2021/03/10 08:02:26;;;;;;;29.98;7.22;;;;;;;-0.42;47.58;100167.04;1800354;79;21062;-60
2021/03/10 08:05:00;;;;;;;21.93;4.95;;;;;;;-0.38;46.48;100172.19;1800350;79;21073;-60
2021/03/10 08:07:31;;;;;;;33.45;6.75;;;;;;;-0.43;46.31;100177.68;1800365;79;21102;-59
2021/03/10 08:10:00;;;;;;;22.55;6.15;;;;;;;-0.51;46.93;100177.98;1800324;79;21246;-59
2021/03/10 08:12:40;;;;;;;19.15;7.58;;;;;;;-0.55;46.65;100170.23;1800251;79;21557;-60
2021/03/10 08:15:10;;;;;;;22.77;8.00;;;;;;;-0.62;46.76;100173.14;1800295;79;21110;-59
2021/03/10 08:17:37;;;;;;;16.52;5.00;;;;;;;-0.57;47.08;100168.94;1773948;79;21153;-60
2021/03/10 08:20:06;;;;;;;29.57;6.03;;;;;;;-0.55;47.05;100180.46;1800326;79;21054;-59
2021/03/10 08:22:34;;;;;;;16.25;5.00;;;;;;;-0.56;47.31;100174.91;1800318;79;21122;-60
2021/03/10 08:25:03;;;;;;;110.35;13.48;;;;;;;-0.61;47.27;100174.00;1800186;79;21073;-60
2021/03/10 08:27:36;;;;;;;30.27;7.35;;;;;;;-0.67;47.80;100173.91;1800260;79;21463;-61
2021/03/10 08:30:08;;;;;;;71.25;11.53;;;;;;;-0.75;48.09;100178.47;1799351;79;21149;-59
2021/03/10 08:32:37;;;;;;;47.13;8.18;;;;;;;-0.76;48.78;100176.75;1799823;79;21613;-60
2021/03/10 08:35:22;;;;;;;195.50;22.50;;;;;;;-0.60;49.34;100179.55;1771900;79;21366;-61
2021/03/10 08:38:01;;;;;;;24.80;7.87;;;;;;;-0.47;49.29;100175.05;1800262;79;21133;-61
2021/03/10 08:40:31;;;;;;;58.95;8.43;;;;;;;-0.36;49.03;100174.77;1800361;79;21545;-61
2021/03/10 08:43:02;;;;;;;33.42;7.15;;;;;;;-0.33;49.05;100177.79;1800286;78;21160;-62
2021/03/10 08:45:33;;;;;;;31.90;6.72;;;;;;;-0.28;48.78;100177.02;1800363;79;21554;-60
2021/03/10 08:48:13;;;;;;;21.60;6.70;;;;;;;-0.20;48.66;100178.41;1800315;79;21363;-60
2021/03/10 08:50:46;;;;;;;39.70;8.50;;;;;;;-0.11;48.03;100174.26;1772926;79;21082;-60
2021/03/10 08:53:16;;;;;;;23.03;7.83;;;;;;;-0.14;48.25;100169.52;1800571;79;21578;-61
2021/03/10 08:55:48;;;;;;;19.80;8.28;;;;;;;-0.12;48.30;100166.56;1795686;79;21114;-62
2021/03/10 08:58:18;;;;;;;18.77;6.87;;;;;;;-0.08;48.18;100167.91;1789795;80;21161;-62
2021/03/10 09:00:51;;;;;;;54.15;8.08;;;;;;;-0.04;47.77;100163.28;1790200;80;21570;-60
2021/03/10 09:03:20;;;;;;;37.33;6.30;;;;;;;-0.05;47.91;100165.40;1790230;80;21538;-60
2021/03/10 09:05:50;;;;;;;37.15;6.58;;;;;;;-0.02;47.64;100171.83;1790097;80;21601;-61
2021/03/10 09:08:23;;;;;;;19.65;6.03;;;;;;;0.00;47.97;100161.17;1789461;80;21122;-61
2021/03/10 09:10:57;;;;;;;47.13;7.05;;;;;;;0.10;48.29;100162.58;1789963;80;37181;-60
2021/03/10 09:13:37;;;;;;;19.35;5.80;;;;;;;0.25;47.80;100158.48;1888596;75;22747;-60
2021/03/10 09:16:10;;;;;;;22.35;6.92;;;;;;;0.26;47.56;100151.25;1774950;80;21194;-62
2021/03/10 09:18:40;;;;;;;22.20;7.47;;;;;;;0.33;46.20;100158.58;1848194;77;21192;-61
2021/03/10 09:21:08;;;;;;;24.82;6.17;;;;;;;0.28;46.19;100149.98;1849620;77;20936;-61
2021/03/10 09:23:38;;;;;;;14.60;6.28;;;;;;;0.28;46.63;100156.38;1849360;77;21512;-60
2021/03/10 09:26:09;;;;;;;35.00;8.70;;;;;;;0.38;46.49;100153.52;1849775;77;21460;-61
2021/03/10 09:28:40;;;;;;;12.60;5.70;;;;;;;0.51;46.70;100153.64;1848848;77;21075;-61
2021/03/10 09:31:13;;;;;;;28.75;6.05;;;;;;;0.58;46.64;100154.58;1828463;77;21356;-60
2021/03/10 09:33:43;;;;;;;22.05;6.45;;;;;;;0.59;46.31;100158.43;1848494;77;21134;-60
2021/03/10 09:36:13;;;;;;;31.00;6.60;;;;;;;0.60;46.10;100152.89;1848442;77;21155;-61
2021/03/10 09:38:45;;;;;;;50.30;9.78;;;;;;;0.59;45.65;100158.85;1792343;77;21138;-60
2021/03/10 09:41:13;;;;;;;103.83;11.65;;;;;;;0.58;45.68;100158.41;1793845;77;21576;-61
2021/03/10 09:43:43;;;;;;;20.92;6.78;;;;;;;0.59;45.69;100153.31;1849729;77;22077;-61
2021/03/10 09:46:13;;;;;;;35.40;8.08;;;;;;;0.64;46.19;100152.91;1849411;77;21150;-60
2021/03/10 09:48:42;;;;;;;18.60;6.58;;;;;;;0.79;45.89;100153.49;1849723;77;21535;-61
2021/03/10 09:51:19;;;;;;;33.90;7.30;;;;;;;0.90;45.35;100152.28;1849156;77;21154;-62
2021/03/10 09:53:50;;;;;;;13.20;6.42;;;;;;;0.92;45.28;100148.04;1842446;77;21272;-60
2021/03/10 09:56:21;;;;;;;40.65;7.22;;;;;;;0.95;45.50;100142.53;1797999;77;21373;-61
2021/03/10 09:58:59;;;;;;;33.48;7.90;;;;;;;1.01;45.07;100143.83;1843510;77;21619;-62
2021/03/10 10:01:30;;;;;;;28.90;7.08;;;;;;;1.01;45.11;100146.81;1847473;77;21194;-63
2021/03/10 10:03:59;;;;;;;8.20;4.20;;;;;;;1.01;44.54;100138.70;1817936;77;21607;-62
2021/03/10 10:06:28;;;;;;;30.52;6.60;;;;;;;1.01;44.16;100136.56;1818297;77;21326;-62
2021/03/10 10:08:58;;;;;;;43.08;11.25;;;;;;;1.02;44.41;100142.98;1844107;77;22309;-62
2021/03/10 10:11:29;;;;;;;37.88;7.20;;;;;;;1.06;44.48;100138.75;1844118;77;21504;-62
2021/03/10 10:13:58;;;;;;;37.25;8.10;;;;;;;1.13;44.48;100137.10;1819121;77;21032;-61
2021/03/10 10:16:26;;;;;;;32.03;6.83;;;;;;;1.17;44.21;100133.72;1849667;77;21056;-60
2021/03/10 10:18:58;;;;;;;14.53;5.35;;;;;;;1.14;43.98;100130.71;1849810;77;21460;-60
2021/03/10 10:21:26;;;;;;;27.70;6.33;;;;;;;1.07;43.39;100128.08;1819497;77;21336;-61
2021/03/10 10:23:56;;;;;;;35.40;9.25;;;;;;;0.94;43.38;100123.30;1849321;77;21107;-62
2021/03/10 10:26:24;;;;;;;50.55;9.28;;;;;;;0.92;43.62;100123.70;1849135;77;21099;-61
2021/03/10 10:28:52;;;;;;;59.10;9.38;;;;;;;0.96;43.58;100122.89;1849056;77;21147;-61
2021/03/10 10:31:22;;;;;;;80.12;8.95;;;;;;;1.04;43.51;100125.93;1847674;77;21136;-61
2021/03/10 10:33:51;;;;;;;48.90;7.05;;;;;;;1.08;44.20;100129.38;1849076;77;21578;-61
2021/03/10 10:36:20;;;;;;;53.08;9.03;;;;;;;1.14;44.24;100130.71;1848639;77;21197;-61
2021/03/10 10:38:48;;;;;;;41.77;8.08;;;;;;;1.15;44.02;100120.04;1849080;77;21032;-60
2021/03/10 10:41:16;;;;;;;33.98;9.28;;;;;;;1.18;44.23;100118.78;1822628;77;21151;-61
2021/03/10 10:43:44;;;;;;;46.37;9.15;;;;;;;1.11;43.82;100115.31;1819938;78;21134;-61
2021/03/10 10:46:13;;;;;;;63.35;9.78;;;;;;;1.12;43.97;100116.17;1825230;77;23510;-60
2021/03/10 10:48:43;;;;;;;19.95;6.05;;;;;;;1.14;44.28;100108.08;1820206;77;21114;-60
2021/03/10 10:51:13;;;;;;;40.80;7.25;;;;;;;1.17;43.88;100111.94;1819597;78;21170;-61
2021/03/10 10:53:51;;;;;;;28.70;6.87;;;;;;;1.23;44.50;100114.52;1909023;74;22361;-60
2021/03/10 10:56:19;;;;;;;21.75;7.72;;;;;;;1.23;44.20;100111.53;1848549;77;21128;-60
2021/03/10 10:58:47;;;;;;;29.40;7.72;;;;;;;1.24;44.24;100113.25;1874905;76;21595;-62
2021/03/10 11:01:15;;;;;;;47.55;8.70;;;;;;;1.28;44.56;100121.41;1798137;79;21170;-62
2021/03/10 11:03:43;;;;;;;27.80;6.37;;;;;;;1.33;44.65;100113.75;1806145;79;21129;-62
2021/03/10 11:06:12;;;;;;;37.53;10.85;;;;;;;1.40;43.84;100109.07;1792606;80;21677;-62
2021/03/10 11:08:42;;;;;;;26.75;6.60;;;;;;;1.46;44.17;100106.97;1761872;80;21245;-61
2021/03/10 11:11:11;;;;;;;33.08;7.95;;;;;;;1.51;44.01;100111.28;1807280;79;22816;-60
2021/03/10 11:13:50;;;;;;;47.35;9.43;;;;;;;1.61;43.76;100105.76;1873108;75;22767;-61
2021/03/10 11:16:26;;;;;;;69.17;9.38;;;;;;;1.67;44.35;100105.37;1840580;78;21593;-61
2021/03/10 11:18:59;;;;;;;34.50;7.15;;;;;;;1.77;43.74;100099.88;1840180;78;21371;-63
2021/03/10 11:21:27;;;;;;;27.42;6.70;;;;;;;1.84;42.92;100098.17;1840221;78;20911;-61
2021/03/10 11:23:57;;;;;;;14.73;6.28;;;;;;;1.73;42.17;100101.98;1838599;78;21576;-62
2021/03/10 11:26:26;;;;;;;61.02;10.28;;;;;;;1.58;42.15;100095.52;1841112;78;21600;-61
2021/03/10 11:28:54;;;;;;;13.68;5.37;;;;;;;1.54;42.94;100101.05;1841115;77;21165;-60
2021/03/10 11:31:22;;;;;;;28.45;7.37;;;;;;;1.56;42.70;100098.50;1840773;78;21612;-61
2021/03/10 11:33:50;;;;;;;40.35;6.65;;;;;;;1.65;43.25;100095.95;1841252;78;21502;-60
2021/03/10 11:36:18;;;;;;;68.50;10.60;;;;;;;1.73;42.74;100091.30;1841443;78;21051;-60